Time;durP1;ratioP1;P1;durP2;ratioP2;P2;SDS_P1;SDS_P2;PMS_P1;PMS_P2;Temp;Humidity;BMP_temperature;BMP_pressure;BME280_temperature;BME280_humidity;BME280_pressure;Samples;Min_cycle;Max_cycle;Signal;HPM_P1;HPM_P2
2021/09/30 00:00:07;;;;;;;5.18;2.13;;;9.50;87.00;;;;;;5055611;28;20033;-38
2021/09/30 00:02:34;;;;;;;6.80;2.97;;;9.50;87.10;;;;;;5055212;28;20044;-37
2021/09/30 00:04:59;;;;;;;5.10;2.30;;;9.50;87.00;;;;;;5055189;28;20098;-36
2021/09/30 00:07:25;;;;;;;7.95;2.33;;;9.50;87.00;;;;;;5055464;28;20104;-36
2021/09/30 00:09:51;;;;;;;7.30;2.60;;;9.50;87.00;;;;;;5055188;28;20021;-37
2021/09/30 00:12:21;;;;;;;6.25;2.25;;;9.50;87.10;;;;;;5055050;28;20049;-37
2021/09/30 00:14:56;;;;;;;7.90;2.60;;;9.50;87.00;;;;;;5055508;28;20021;-36
2021/09/30 00:33:32;;;;;;;8.90;2.70;;;9.60;86.70;;;;;;5054808;28;20079;-37
2021/09/30 00:36:05;;;;;;;5.40;2.05;;;9.50;86.90;;;;;;5055460;28;20072;-36
2021/09/30 00:52:09;;;;;;;9.20;2.70;;;9.60;87.00;;;;;;5054453;28;20495;-36
2021/09/30 01:46:12;;;;;;;9.15;3.88;;;9.70;86.70;;;;;;5053809;28;20070;-37
2021/09/30 02:19:33;;;;;;;10.10;3.45;;;9.40;87.10;;;;;;5053042;28;20040;-37
2021/09/30 02:25:05;;;;;;;9.75;3.22;;;9.30;87.30;;;;;;5052927;28;20200;-37
2021/09/30 02:30:33;;;;;;;7.97;2.25;;;9.30;87.20;;;;;;5053139;28;20025;-37
2021/09/30 03:01:01;;;;;;;7.13;3.38;;;8.90;88.70;;;;;;5052776;28;20108;-38
2021/09/30 03:03:30;;;;;;;13.55;3.90;;;9.00;88.80;;;;;;5052766;28;20378;-38
2021/09/30 03:05:56;;;;;;;9.02;3.30;;;8.90;88.60;;;;;;5052331;28;20025;-37
2021/09/30 03:08:25;;;;;;;7.65;3.67;;;8.80;88.70;;;;;;5052387;28;20025;-37
2021/09/30 03:10:53;;;;;;;10.52;3.67;;;8.90;88.90;;;;;;5052396;28;20021;-38
2021/09/30 03:13:23;;;;;;;9.15;4.22;;;8.80;88.80;;;;;;5052560;28;20086;-38
2021/09/30 03:16:07;;;;;;;11.93;3.35;;;8.80;89.00;;;;;;5052553;28;20025;-38
2021/09/30 03:18:50;;;;;;;7.65;3.22;;;8.80;89.20;;;;;;5052740;28;20055;-38
2021/09/30 03:23:45;;;;;;;7.97;3.83;;;8.70;89.30;;;;;;5053841;28;20422;-37
2021/09/30 03:26:12;;;;;;;12.70;4.43;;;8.70;89.40;;;;;;5055953;28;20465;-38
2021/09/30 03:28:40;;;;;;;5.70;4.03;;;8.70;89.40;;;;;;5056302;28;20064;-37
2021/09/30 03:31:06;;;;;;;10.65;3.83;;;8.60;89.40;;;;;;5054968;28;20025;-38
2021/09/30 03:33:32;;;;;;;10.02;4.10;;;8.70;89.10;;;;;;5056142;28;20029;-38
2021/09/30 03:35:57;;;;;;;11.32;3.78;;;8.70;89.10;;;;;;5055885;28;20021;-38
2021/09/30 03:38:23;;;;;;;7.78;3.63;;;8.70;89.10;;;;;;5055778;28;20036;-38
2021/09/30 03:40:50;;;;;;;7.40;3.65;;;8.70;88.90;;;;;;5055689;28;20017;-37
2021/09/30 03:43:16;;;;;;;10.13;3.72;;;8.60;89.00;;;;;;5056033;28;20036;-37
2021/09/30 03:45:42;;;;;;;12.70;3.78;;;8.60;89.10;;;;;;5055941;28;20357;-37
2021/09/30 03:48:08;;;;;;;8.10;2.90;;;8.60;89.20;;;;;;5055649;28;20095;-37
2021/09/30 03:50:51;;;;;;;8.68;4.15;;;8.50;89.20;;;;;;5055385;28;20028;-38
2021/09/30 03:53:24;;;;;;;5.50;3.05;;;8.50;89.20;;;;;;5055420;28;20017;-37
2021/09/30 04:01:18;;;;;;;11.63;3.88;;;8.50;89.20;;;;;;5055326;28;20087;-37
2021/09/30 04:03:44;;;;;;;7.35;3.67;;;8.50;89.10;;;;;;5055195;28;20025;-37
2021/09/30 04:06:10;;;;;;;11.27;3.95;;;8.50;89.10;;;;;;5055262;28;20096;-37
2021/09/30 04:08:35;;;;;;;10.93;3.25;;;8.40;89.20;;;;;;5055739;28;20108;-37
2021/09/30 04:11:01;;;;;;;12.63;3.83;;;8.40;89.20;;;;;;5053925;28;20116;-38
2021/09/30 04:13:27;;;;;;;10.60;3.30;;;8.40;89.20;;;;;;5055371;28;20528;-36
2021/09/30 04:15:53;;;;;;;5.53;3.35;;;8.40;89.30;;;;;;5055314;28;20035;-36
2021/09/30 04:18:19;;;;;;;4.95;3.10;;;8.40;89.10;;;;;;5054836;28;20025;-36
2021/09/30 04:20:44;;;;;;;18.15;4.40;;;8.40;89.30;;;;;;5054873;28;20054;-37
2021/09/30 04:23:10;;;;;;;10.07;3.38;;;8.40;89.40;;;;;;5054656;28;20021;-36
2021/09/30 04:25:37;;;;;;;11.52;3.97;;;8.40;89.10;;;;;;5054975;28;20032;-37
2021/09/30 04:28:03;;;;;;;12.50;3.45;;;8.40;89.10;;;;;;5054677;28;20056;-36
2021/09/30 04:30:29;;;;;;;7.85;3.47;;;8.30;89.10;;;;;;5054699;28;20057;-36
2021/09/30 04:32:54;;;;;;;11.15;3.70;;;8.30;89.20;;;;;;5053312;28;20110;-36
2021/09/30 04:35:20;;;;;;;9.52;2.90;;;8.30;89.20;;;;;;5054033;28;20033;-36
2021/09/30 04:37:46;;;;;;;15.38;3.33;;;8.30;89.40;;;;;;5054575;28;20033;-36
2021/09/30 04:40:12;;;;;;;11.55;3.38;;;8.30;89.40;;;;;;5054457;28;20492;-37
2021/09/30 04:42:38;;;;;;;7.68;3.13;;;8.30;89.10;;;;;;5054774;28;20481;-36
2021/09/30 04:45:05;;;;;;;9.23;3.00;;;8.30;89.10;;;;;;5055427;28;20116;-37
2021/09/30 04:47:30;;;;;;;7.93;3.47;;;8.30;89.30;;;;;;5054412;28;20033;-37
2021/09/30 04:49:56;;;;;;;7.88;4.13;;;8.30;89.00;;;;;;5054504;28;20024;-37
2021/09/30 04:52:22;;;;;;;6.03;3.33;;;8.30;89.10;;;;;;5054595;28;20052;-36
2021/09/30 04:54:48;;;;;;;15.52;3.85;;;8.30;89.10;;;;;;5054348;28;20068;-36
2021/09/30 04:57:14;;;;;;;7.85;3.72;;;8.30;89.00;;;;;;5054521;28;20023;-36
2021/09/30 04:59:39;;;;;;;12.43;3.30;;;8.30;89.10;;;;;;5054018;28;20095;-36
2021/09/30 05:02:05;;;;;;;13.88;4.32;;;8.30;89.10;;;;;;5054063;28;20074;-36
2021/09/30 05:04:30;;;;;;;8.75;4.15;;;8.30;89.10;;;;;;5053845;28;20025;-36
2021/09/30 05:06:56;;;;;;;9.05;2.88;;;8.30;89.20;;;;;;5054081;28;20025;-36
2021/09/30 05:09:24;;;;;;;14.73;3.50;;;8.30;89.20;;;;;;5054045;28;20036;-37
2021/09/30 05:11:56;;;;;;;13.60;3.65;;;8.20;89.20;;;;;;5052620;28;20025;-37
2021/09/30 05:14:22;;;;;;;11.82;4.80;;;8.20;89.10;;;;;;5053860;28;20530;-37
2021/09/30 05:16:49;;;;;;;14.82;5.43;;;8.30;88.90;;;;;;5052435;28;20032;-38
2021/09/30 05:19:15;;;;;;;10.02;3.50;;;8.30;88.90;;;;;;5054021;28;20465;-37
2021/09/30 05:21:41;;;;;;;11.88;3.67;;;8.30;89.10;;;;;;5054241;28;20021;-37
2021/09/30 05:24:07;;;;;;;12.15;4.53;;;8.20;89.10;;;;;;5053717;28;20048;-38
2021/09/30 05:26:33;;;;;;;11.07;4.25;;;8.20;89.00;;;;;;5053842;28;20028;-36
2021/09/30 05:29:00;;;;;;;11.00;4.40;;;8.30;88.90;;;;;;5053919;28;20032;-37
2021/09/30 05:31:27;;;;;;;14.60;4.03;;;8.20;89.00;;;;;;5053733;28;20468;-37
2021/09/30 05:33:52;;;;;;;7.72;3.50;;;8.30;88.90;;;;;;5053371;28;20040;-37
2021/09/30 05:36:18;;;;;;;13.57;4.60;;;8.30;88.70;;;;;;5053475;28;20025;-37
2021/09/30 05:38:44;;;;;;;4.82;3.13;;;8.20;88.80;;;;;;5051990;28;20025;-38
2021/09/30 05:41:10;;;;;;;11.48;4.10;;;8.20;88.90;;;;;;5053228;28;20027;-38
2021/09/30 05:43:38;;;;;;;12.00;3.75;;;8.20;88.90;;;;;;5051861;28;20083;-38
2021/09/30 05:46:05;;;;;;;14.77;4.18;;;8.20;88.90;;;;;;5053504;28;20389;-38
2021/09/30 05:48:31;;;;;;;20.35;6.07;;;8.20;88.80;;;;;;5053411;28;20025;-39
2021/09/30 05:50:57;;;;;;;9.20;3.67;;;8.20;88.80;;;;;;5052961;28;20032;-38
2021/09/30 05:53:24;;;;;;;10.73;5.28;;;8.20;88.60;;;;;;5051572;28;20107;-38
2021/09/30 05:55:49;;;;;;;7.68;3.20;;;8.20;88.70;;;;;;5053055;28;20044;-38
2021/09/30 05:58:16;;;;;;;8.25;3.67;;;8.30;88.50;;;;;;5053152;28;20028;-38
2021/09/30 06:14:03;;;;;;;15.82;3.53;;;8.40;87.80;;;;;;5052955;28;20436;-39
2021/09/30 06:16:31;;;;;;;7.30;3.95;;;8.50;87.40;;;;;;5052795;28;20436;-37
2021/09/30 06:18:56;;;;;;;10.02;4.20;;;8.50;87.30;;;;;;5052290;28;20047;-37
2021/09/30 06:21:22;;;;;;;7.18;3.55;;;8.50;87.30;;;;;;5052595;28;20105;-37
2021/09/30 06:23:48;;;;;;;10.32;3.20;;;8.50;87.10;;;;;;5051161;28;20029;-37
2021/09/30 06:26:14;;;;;;;5.95;3.08;;;8.60;87.20;;;;;;5052389;28;20330;-37
2021/09/30 06:28:39;;;;;;;5.75;3.22;;;8.70;86.60;;;;;;5050790;28;20025;-37
2021/09/30 06:31:05;;;;;;;10.93;4.32;;;8.80;86.30;;;;;;5052665;28;20059;-37
2021/09/30 06:33:31;;;;;;;6.80;3.42;;;8.80;86.00;;;;;;5051031;28;20033;-38
2021/09/30 06:35:57;;;;;;;19.42;4.93;;;8.80;86.10;;;;;;5052683;28;20024;-37
2021/09/30 06:38:22;;;;;;;7.07;3.53;;;8.80;85.80;;;;;;5052601;28;20385;-37
2021/09/30 06:40:48;;;;;;;9.05;2.97;;;8.90;85.60;;;;;;5052882;28;20025;-37
2021/09/30 06:43:14;;;;;;;19.88;4.13;;;8.90;85.60;;;;;;5052404;28;20091;-37
2021/09/30 06:45:40;;;;;;;11.85;3.30;;;9.00;85.30;;;;;;5052416;28;20116;-37
2021/09/30 06:48:06;;;;;;;21.45;4.53;;;9.10;85.10;;;;;;5052293;28;20094;-37
2021/09/30 06:50:31;;;;;;;14.30;3.85;;;9.10;85.10;;;;;;5052549;28;20036;-37
2021/09/30 06:52:59;;;;;;;12.98;4.55;;;9.10;84.80;;;;;;5052411;28;20048;-37
2021/09/30 06:55:24;;;;;;;20.20;3.97;;;9.20;84.60;;;;;;5050511;28;20049;-37
2021/09/30 06:58:00;;;;;;;9.95;2.10;;;9.30;84.40;;;;;;5052272;28;20546;-39
2021/09/30 07:00:27;;;;;;;12.90;3.95;;;9.30;84.00;;;;;;5055544;28;20040;-38
2021/09/30 07:02:53;;;;;;;8.18;2.72;;;9.40;84.00;;;;;;5056750;28;20014;-36
2021/09/30 07:05:20;;;;;;;9.95;3.67;;;9.50;83.70;;;;;;5055970;28;20218;-38
2021/09/30 07:07:45;;;;;;;7.70;3.22;;;9.50;83.60;;;;;;5055813;28;20066;-37
2021/09/30 07:10:11;;;;;;;5.70;2.70;;;9.60;83.20;;;;;;5056418;28;20119;-37
2021/09/30 07:12:41;;;;;;;7.30;3.08;;;9.70;83.10;;;;;;5055122;28;20029;-37
2021/09/30 07:15:08;;;;;;;7.13;2.85;;;9.70;82.90;;;;;;5054518;28;20385;-37
2021/09/30 07:17:34;;;;;;;16.83;4.07;;;9.80;82.50;;;;;;5054973;28;20021;-38
2021/09/30 07:20:00;;;;;;;11.02;2.92;;;9.80;82.40;;;;;;5055963;28;20029;-37
2021/09/30 07:22:26;;;;;;;13.20;3.42;;;9.90;82.00;;;;;;5055539;28;20049;-37
2021/09/30 07:24:52;;;;;;;11.75;3.47;;;10.00;81.70;;;;;;5055603;28;20033;-37
2021/09/30 07:27:18;;;;;;;9.80;4.40;;;10.20;81.00;;;;;;5037827;28;20025;-38
2021/09/30 07:29:44;;;;;;;9.25;3.75;;;10.40;80.50;;;;;;5055688;28;20358;-38
2021/09/30 07:32:10;;;;;;;12.55;3.42;;;10.60;80.20;;;;;;5055739;28;20033;-38
2021/09/30 07:34:36;;;;;;;14.38;3.22;;;10.80;79.30;;;;;;5055130;28;20025;-37
2021/09/30 07:37:02;;;;;;;11.25;3.58;;;10.60;79.10;;;;;;5055132;28;20103;-37
2021/09/30 07:39:29;;;;;;;9.75;3.42;;;10.60;79.70;;;;;;5055246;28;20029;-37
2021/09/30 07:41:56;;;;;;;11.02;3.25;;;10.80;78.90;;;;;;5055375;28;20025;-37
2021/09/30 07:44:21;;;;;;;10.95;3.70;;;10.80;78.80;;;;;;5055000;28;20025;-38
2021/09/30 07:46:48;;;;;;;9.65;4.10;;;10.80;79.00;;;;;;5055368;28;20416;-37
2021/09/30 07:49:14;;;;;;;11.30;3.55;;;11.00;78.30;;;;;;5055419;28;20032;-37
2021/09/30 07:51:40;;;;;;;10.73;3.83;;;11.10;78.30;;;;;;5055103;28;20477;-37
2021/09/30 07:54:07;;;;;;;10.23;4.13;;;11.10;78.00;;;;;;5054679;28;20056;-36
2021/09/30 07:56:33;;;;;;;20.30;5.13;;;11.20;78.10;;;;;;5054837;28;20052;-37
2021/09/30 07:58:59;;;;;;;13.95;4.00;;;11.30;77.20;;;;;;5054838;28;20151;-37
2021/09/30 08:01:25;;;;;;;8.77;3.58;;;11.30;77.40;;;;;;5053445;28;20486;-37
2021/09/30 08:03:51;;;;;;;10.30;3.38;;;11.30;76.90;;;;;;5055030;28;20028;-37
2021/09/30 08:06:18;;;;;;;13.98;4.63;;;11.40;76.20;;;;;;5055143;28;20025;-39
2021/09/30 08:08:43;;;;;;;7.75;3.08;;;11.80;75.70;;;;;;5054913;28;20036;-37
2021/09/30 08:11:09;;;;;;;16.30;3.90;;;12.50;72.70;;;;;;5053521;28;20025;-37
2021/09/30 08:13:35;;;;;;;10.50;3.85;;;12.90;71.10;;;;;;5053341;28;20140;-37
2021/09/30 08:16:01;;;;;;;12.80;3.45;;;12.70;71.60;;;;;;5054665;28;20412;-38
2021/09/30 08:18:27;;;;;;;8.23;3.35;;;12.80;71.40;;;;;;5053158;28;20116;-37
2021/09/30 08:20:54;;;;;;;12.15;3.25;;;13.70;69.00;;;;;;5054227;28;20061;-37
2021/09/30 08:23:20;;;;;;;7.15;3.60;;;14.00;67.10;;;;;;5054221;28;20087;-37
2021/09/30 08:25:46;;;;;;;9.77;2.53;;;14.20;67.30;;;;;;5054145;28;20021;-38
2021/09/30 08:28:13;;;;;;;7.95;3.03;;;14.60;65.00;;;;;;5054365;28;20476;-37
2021/09/30 08:30:40;;;;;;;10.90;4.18;;;14.00;66.70;;;;;;5055212;28;20109;-38
2021/09/30 08:33:08;;;;;;;11.82;4.47;;;14.30;65.90;;;;;;5053210;28;20036;-37
2021/09/30 08:35:42;;;;;;;9.10;2.83;;;14.50;64.20;;;;;;5054395;28;20163;-39
2021/09/30 08:38:08;;;;;;;13.32;4.18;;;13.70;66.50;;;;;;5053331;28;20430;-37
2021/09/30 08:40:34;;;;;;;16.50;4.43;;;13.70;68.00;;;;;;5053396;28;20020;-38
2021/09/30 08:43:00;;;;;;;9.77;3.00;;;13.80;66.40;;;;;;5053848;28;20033;-38
2021/09/30 08:45:26;;;;;;;9.57;4.20;;;13.40;68.00;;;;;;5052135;28;20104;-38
2021/09/30 08:48:04;;;;;;;7.50;2.78;;;13.80;67.60;;;;;;5053497;28;20136;-38
2021/09/30 08:50:37;;;;;;;7.93;3.17;;;14.80;63.80;;;;;;5054384;28;20029;-38
2021/09/30 08:53:05;;;;;;;12.63;3.42;;;15.20;61.90;;;;;;5053812;28;20029;-38
2021/09/30 08:55:30;;;;;;;13.27;3.38;;;14.70;63.30;;;;;;5051934;28;20045;-38
2021/09/30 08:57:56;;;;;;;7.57;3.10;;;14.80;63.40;;;;;;5053025;28;20075;-37
2021/09/30 09:00:22;;;;;;;10.30;4.25;;;14.80;63.20;;;;;;5053717;28;20029;-37
2021/09/30 09:02:52;;;;;;;11.98;3.63;;;14.80;63.10;;;;;;5053727;28;20021;-38
2021/09/30 09:05:22;;;;;;;10.90;3.38;;;14.80;64.10;;;;;;5053242;28;20096;-38
2021/09/30 09:08:00;;;;;;;9.77;3.10;;;14.80;62.90;;;;;;5053954;28;20036;-37
2021/09/30 09:10:31;;;;;;;14.18;2.88;;;15.20;61.60;;;;;;5053535;28;20115;-37
2021/09/30 09:13:13;;;;;;;11.82;2.90;;;15.50;60.70;;;;;;5053324;28;20538;-37
2021/09/30 09:15:46;;;;;;;9.05;2.97;;;15.40;60.70;;;;;;5053470;28;20036;-37
2021/09/30 09:18:22;;;;;;;16.70;3.15;;;15.60;59.80;;;;;;5052971;28;20381;-37
2021/09/30 09:21:09;;;;;;;9.48;2.63;;;15.80;59.30;;;;;;5052352;28;20049;-37
2021/09/30 09:23:53;;;;;;;8.57;3.83;;;15.70;58.90;;;;;;5053856;28;20028;-37
2021/09/30 09:26:21;;;;;;;12.82;3.22;;;15.70;60.80;;;;;;5052578;28;20025;-37
2021/09/30 09:29:09;;;;;;;6.63;2.22;;;16.40;57.60;;;;;;5053092;28;20048;-37
2021/09/30 09:31:40;;;;;;;3.75;1.75;;;15.80;59.50;;;;;;5053137;28;20029;-36
2021/09/30 09:34:17;;;;;;;13.05;2.42;;;15.50;59.80;;;;;;5052797;28;20017;-37
2021/09/30 09:36:44;;;;;;;10.93;3.38;;;14.60;62.50;;;;;;5052231;28;20033;-37
2021/09/30 09:39:10;;;;;;;5.40;2.20;;;15.40;60.80;;;;;;5053775;28;20432;-37
2021/09/30 09:41:36;;;;;;;28.55;4.40;;;16.20;58.70;;;;;;5052779;28;20031;-37
2021/09/30 09:44:04;;;;;;;7.68;3.67;;;15.80;59.00;;;;;;5052658;28;20199;-36
2021/09/30 09:46:36;;;;;;;7.97;2.10;;;16.40;57.40;;;;;;5051747;28;20031;-37
2021/09/30 09:49:03;;;;;;;14.45;3.72;;;16.20;58.00;;;;;;5050864;28;20119;-37
2021/09/30 09:51:43;;;;;;;10.45;3.20;;;16.80;56.40;;;;;;5050743;28;20140;-37
2021/09/30 09:54:23;;;;;;;11.93;2.83;;;16.30;58.00;;;;;;5052548;28;20097;-37
2021/09/30 09:56:53;;;;;;;13.90;3.58;;;16.70;56.40;;;;;;5052575;28;20076;-38
2021/09/30 09:59:32;;;;;;;11.35;3.50;;;16.70;55.90;;;;;;5052686;28;20095;-37
2021/09/30 10:02:00;;;;;;;12.63;3.33;;;16.50;56.30;;;;;;5052927;28;20550;-39
2021/09/30 10:04:27;;;;;;;10.85;2.63;;;15.90;56.60;;;;;;5053517;28;20072;-38
2021/09/30 10:06:53;;;;;;;18.42;5.60;;;15.30;59.00;;;;;;5051539;28;20059;-38
2021/09/30 10:09:20;;;;;;;13.90;3.03;;;15.00;59.80;;;;;;5052745;28;20077;-39
2021/09/30 10:11:45;;;;;;;8.02;3.15;;;14.70;60.70;;;;;;5052548;28;20033;-39
2021/09/30 10:14:12;;;;;;;9.65;2.90;;;14.60;60.40;;;;;;5052508;28;20519;-40
2021/09/30 10:16:38;;;;;;;9.15;3.00;;;14.80;60.20;;;;;;5052331;28;20381;-37
2021/09/30 10:19:08;;;;;;;6.65;2.83;;;15.10;59.70;;;;;;5051817;28;20207;-37
2021/09/30 10:21:36;;;;;;;12.93;3.55;;;14.80;60.80;;;;;;5052096;28;20468;-37
2021/09/30 10:24:18;;;;;;;7.00;2.70;;;14.80;59.90;;;;;;5052068;28;20444;-37
2021/09/30 10:26:57;;;;;;;9.93;2.38;;;14.90;59.60;;;;;;5052008;28;20027;-37
2021/09/30 10:29:47;;;;;;;7.82;1.80;;;15.00;58.60;;;;;;5052258;28;20025;-37
2021/09/30 10:32:17;;;;;;;9.10;2.40;;;14.50;58.30;;;;;;5052146;28;20334;-37
2021/09/30 10:34:50;;;;;;;9.23;2.25;;;14.40;57.90;;;;;;5051265;28;20112;-37
2021/09/30 10:37:19;;;;;;;7.57;2.13;;;14.40;58.80;;;;;;5050695;28;20025;-37
2021/09/30 10:40:04;;;;;;;5.78;2.50;;;14.70;59.10;;;;;;5051667;28;20104;-37
2021/09/30 10:42:53;;;;;;;7.43;2.70;;;15.30;56.80;;;;;;5051769;28;20553;-37
2021/09/30 10:45:21;;;;;;;6.22;2.25;;;16.00;53.50;;;;;;5052162;28;20120;-37
2021/09/30 10:47:48;;;;;;;5.95;2.30;;;16.40;52.50;;;;;;5051844;28;20027;-37
2021/09/30 10:50:15;;;;;;;12.00;3.42;;;15.90;53.50;;;;;;5051607;28;20029;-37
2021/09/30 10:52:52;;;;;;;7.63;2.50;;;16.00;54.20;;;;;;5051200;28;20028;-37
2021/09/30 10:55:18;;;;;;;6.97;2.75;;;15.90;52.90;;;;;;5051378;28;20050;-37
2021/09/30 10:57:51;;;;;;;14.25;2.30;;;15.80;53.70;;;;;;5051661;28;20028;-37
2021/09/30 11:00:19;;;;;;;7.43;2.67;;;16.50;52.70;;;;;;5051703;28;20028;-37
2021/09/30 11:03:00;;;;;;;7.85;2.22;;;16.20;53.00;;;;;;5050795;28;20481;-38
2021/09/30 11:05:27;;;;;;;15.13;6.35;;;16.40;52.00;;;;;;5051496;28;20074;-38
2021/09/30 11:08:20;;;;;;;6.00;1.13;;;17.10;50.00;;;;;;5052097;28;20055;-37
2021/09/30 11:13:34;;;;;;;4.30;1.42;;;16.60;50.30;;;;;;5051825;28;20114;-38
2021/09/30 11:16:05;;;;;;;4.53;1.63;;;16.30;50.90;;;;;;5051466;28;20031;-38
2021/09/30 11:18:52;;;;;;;7.07;2.15;;;16.50;50.50;;;;;;5051734;28;20067;-38
2021/09/30 11:21:33;;;;;;;11.30;1.92;;;16.70;49.70;;;;;;5051942;28;20022;-38
2021/09/30 11:24:04;;;;;;;6.05;1.60;;;17.20;48.20;;;;;;5051735;28;20056;-38
2021/09/30 11:26:53;;;;;;;7.22;1.85;;;16.70;50.50;;;;;;5051877;28;20053;-39
2021/09/30 11:29:19;;;;;;;9.80;1.83;;;16.70;47.90;;;;;;5051802;28;20104;-38
2021/09/30 11:31:46;;;;;;;6.32;1.25;;;16.10;49.60;;;;;;5051952;28;20114;-38
2021/09/30 11:34:46;;;;;;;3.00;1.83;;;16.20;49.60;;;;;;5051594;28;20033;-38
2021/09/30 11:37:35;;;;;;;4.47;1.13;;;16.00;50.20;;;;;;5051569;28;20091;-38
2021/09/30 11:40:04;;;;;;;1.85;1.08;;;15.80;49.80;;;;;;5052403;28;20021;-38
2021/09/30 11:42:52;;;;;;;4.23;1.40;;;16.10;50.90;;;;;;5051025;28;20033;-38
2021/09/30 11:45:26;;;;;;;4.05;1.42;;;15.50;49.80;;;;;;5054029;28;20021;-38
2021/09/30 11:48:04;;;;;;;6.53;1.55;;;15.40;49.20;;;;;;5055192;28;20025;-38
2021/09/30 11:50:31;;;;;;;10.77;1.77;;;15.30;49.30;;;;;;5054711;28;20021;-38
2021/09/30 11:53:08;;;;;;;10.00;2.25;;;15.20;48.90;;;;;;5055224;28;20108;-37
2021/09/30 11:55:40;;;;;;;3.40;1.83;;;15.30;49.00;;;;;;5054768;28;20044;-39
2021/09/30 11:58:07;;;;;;;6.45;1.38;;;15.40;50.10;;;;;;5055459;28;20477;-38
2021/09/30 12:00:33;;;;;;;3.33;1.10;;;15.60;49.70;;;;;;5055694;28;20418;-38
2021/09/30 12:03:06;;;;;;;8.73;1.83;;;16.00;49.50;;;;;;5057175;28;20112;-39
2021/09/30 12:05:37;;;;;;;4.03;1.33;;;15.80;50.40;;;;;;5056423;28;20381;-38
2021/09/30 12:08:06;;;;;;;5.18;1.45;;;15.80;49.00;;;;;;5056418;28;20036;-40
2021/09/30 12:10:34;;;;;;;4.40;1.23;;;15.70;49.70;;;;;;5055427;28;20111;-37
2021/09/30 12:13:20;;;;;;;6.32;1.60;;;15.80;48.90;;;;;;5055685;28;20420;-38
2021/09/30 12:15:48;;;;;;;9.57;1.63;;;15.90;49.60;;;;;;5055459;28;20140;-38
2021/09/30 12:18:20;;;;;;;6.07;2.25;;;16.20;48.70;;;;;;5055165;28;20108;-38
2021/09/30 12:20:52;;;;;;;8.15;1.38;;;16.10;48.70;;;;;;5053089;28;20069;-37
2021/09/30 12:23:18;;;;;;;4.82;1.50;;;15.80;48.30;;;;;;5053939;28;20024;-37
2021/09/30 12:25:44;;;;;;;6.53;1.45;;;15.70;49.30;;;;;;5052212;28;20025;-38
2021/09/30 12:28:10;;;;;;;6.07;1.35;;;16.10;48.90;;;;;;5054224;28;20108;-38
2021/09/30 12:30:39;;;;;;;4.50;1.15;;;16.70;46.90;;;;;;5054303;28;20414;-38
2021/09/30 12:33:06;;;;;;;4.70;1.40;;;16.30;47.50;;;;;;5053740;28;20069;-38
2021/09/30 12:35:34;;;;;;;6.20;1.73;;;16.10;48.20;;;;;;5054121;28;20098;-38
2021/09/30 12:38:04;;;;;;;8.77;1.33;;;16.10;48.50;;;;;;5054046;28;20029;-38
2021/09/30 12:40:47;;;;;;;9.65;1.80;;;16.30;48.60;;;;;;5053783;28;20020;-38
2021/09/30 12:43:19;;;;;;;6.68;1.48;;;16.30;48.00;;;;;;5053835;28;20071;-36
2021/09/30 12:46:07;;;;;;;12.77;2.88;;;16.20;48.60;;;;;;5052541;28;20428;-37
2021/09/30 12:48:34;;;;;;;7.15;3.13;;;16.20;48.80;;;;;;5053834;28;20064;-37
2021/09/30 12:51:09;;;;;;;3.92;2.15;;;16.30;47.60;;;;;;5053549;28;20029;-37
2021/09/30 12:53:49;;;;;;;3.75;1.30;;;16.30;48.00;;;;;;5053809;28;20021;-37
2021/09/30 12:56:20;;;;;;;4.25;0.98;;;16.60;47.10;;;;;;5052698;28;20072;-37
2021/09/30 12:58:48;;;;;;;4.78;1.77;;;16.30;46.70;;;;;;5054101;28;20112;-37
2021/09/30 13:01:28;;;;;;;4.28;1.00;;;16.10;47.10;;;;;;5035822;28;20084;-38
2021/09/30 13:04:29;;;;;;;5.05;1.50;;;15.80;48.10;;;;;;5054020;28;20024;-38
2021/09/30 13:07:04;;;;;;;4.13;1.58;;;15.50;48.30;;;;;;5053139;28;20045;-37
2021/09/30 13:09:40;;;;;;;4.85;1.27;;;15.50;48.60;;;;;;5053452;28;20033;-37
2021/09/30 13:12:14;;;;;;;1.98;0.93;;;15.60;47.30;;;;;;5053125;28;20025;-37
2021/09/30 13:14:48;;;;;;;8.23;1.20;;;15.80;46.50;;;;;;5053056;28;20021;-37
2021/09/30 13:17:16;;;;;;;9.05;1.52;;;15.70;47.50;;;;;;5053203;28;20041;-37
2021/09/30 13:19:44;;;;;;;8.02;1.48;;;15.70;49.90;;;;;;5052859;28;20056;-37
2021/09/30 13:22:12;;;;;;;7.85;1.42;;;15.70;50.70;;;;;;5052138;28;20488;-37
2021/09/30 13:24:40;;;;;;;6.10;1.55;;;15.70;50.60;;;;;;5053507;28;20052;-38
2021/09/30 13:27:08;;;;;;;11.30;1.90;;;15.80;50.50;;;;;;5053159;28;20373;-38
2021/09/30 13:29:33;;;;;;;12.55;3.00;;;15.80;51.30;;;;;;5053007;28;20358;-38
2021/09/30 13:31:59;;;;;;;3.05;1.60;;;15.80;51.10;;;;;;5053918;28;20025;-38
2021/09/30 13:34:25;;;;;;;7.97;1.60;;;15.80;51.20;;;;;;5052963;28;20039;-38
2021/09/30 13:36:51;;;;;;;5.32;1.30;;;15.90;51.00;;;;;;5051392;28;20082;-37
2021/09/30 13:39:17;;;;;;;2.72;1.42;;;16.10;49.60;;;;;;5052385;28;20021;-37
2021/09/30 13:41:44;;;;;;;5.70;2.22;;;16.30;50.30;;;;;;5052853;28;20032;-36
2021/09/30 13:47:31;;;;;;;7.90;1.42;;;16.00;49.00;;;;;;5053280;28;20385;-38
2021/09/30 13:49:58;;;;;;;6.30;2.90;;;16.10;48.70;;;;;;5051572;28;20029;-37
2021/09/30 13:52:24;;;;;;;7.55;2.35;;;15.80;49.30;;;;;;5053167;28;20027;-37
2021/09/30 13:54:50;;;;;;;5.72;1.55;;;15.80;50.20;;;;;;5050870;28;20049;-38
2021/09/30 13:57:16;;;;;;;5.10;1.85;;;15.60;51.30;;;;;;5050621;28;20035;-38
2021/09/30 13:59:43;;;;;;;5.07;2.65;;;15.50;52.00;;;;;;5052255;28;20036;-37
2021/09/30 14:02:08;;;;;;;5.47;1.83;;;15.70;51.70;;;;;;5051267;28;20444;-38
2021/09/30 14:04:35;;;;;;;9.35;2.00;;;15.50;51.80;;;;;;5052746;28;20067;-38
2021/09/30 14:07:06;;;;;;;6.03;1.30;;;15.80;50.10;;;;;;5051479;28;20201;-38
2021/09/30 14:09:33;;;;;;;7.20;1.63;;;15.60;50.50;;;;;;5052554;28;20033;-37
2021/09/30 14:11:59;;;;;;;4.50;1.23;;;15.70;50.30;;;;;;5052292;28;20021;-38
2021/09/30 14:14:25;;;;;;;6.03;1.13;;;15.60;51.10;;;;;;5052245;28;20072;-37
2021/09/30 14:16:50;;;;;;;5.20;1.58;;;15.40;50.30;;;;;;5052170;28;20048;-37
2021/09/30 14:19:18;;;;;;;2.35;1.00;;;15.60;50.80;;;;;;5052341;28;20465;-38
2021/09/30 14:21:44;;;;;;;5.38;1.20;;;15.50;51.30;;;;;;5052186;28;20025;-39
2021/09/30 14:24:10;;;;;;;5.05;1.38;;;15.30;52.40;;;;;;5052219;28;20017;-37
2021/09/30 14:26:36;;;;;;;9.48;2.47;;;15.60;52.40;;;;;;5051610;28;20025;-37
2021/09/30 14:29:03;;;;;;;6.45;1.98;;;15.80;52.50;;;;;;5051592;28;20069;-37
2021/09/30 14:31:30;;;;;;;6.07;1.90;;;16.00;51.80;;;;;;5052500;28;20496;-37
2021/09/30 14:33:56;;;;;;;6.40;1.50;;;15.70;52.10;;;;;;5051837;28;20025;-38
2021/09/30 14:36:21;;;;;;;5.00;1.70;;;15.40;53.20;;;;;;5052221;28;20499;-38
2021/09/30 14:38:47;;;;;;;3.38;1.38;;;15.30;54.50;;;;;;5051037;28;20017;-38
2021/09/30 14:41:13;;;;;;;7.45;2.05;;;15.30;54.10;;;;;;5051985;28;20542;-38
2021/09/30 14:43:39;;;;;;;6.20;1.20;;;15.30;54.40;;;;;;5050707;28;20474;-37
2021/09/30 14:46:07;;;;;;;5.15;1.80;;;15.20;54.80;;;;;;5051374;28;20035;-37
2021/09/30 14:48:34;;;;;;;10.18;2.70;;;15.30;54.80;;;;;;5051690;28;20536;-38
2021/09/30 14:51:01;;;;;;;3.45;1.63;;;15.20;54.80;;;;;;5051835;28;20025;-37
2021/09/30 14:53:27;;;;;;;8.30;1.58;;;15.30;54.60;;;;;;5052160;28;20032;-37
2021/09/30 14:55:53;;;;;;;9.27;1.42;;;15.40;55.00;;;;;;5052192;28;20125;-37
2021/09/30 14:58:19;;;;;;;6.22;1.25;;;15.60;54.30;;;;;;5050616;28;20084;-37
2021/09/30 15:00:45;;;;;;;9.27;2.53;;;15.30;55.30;;;;;;5051540;28;20025;-37
2021/09/30 15:03:11;;;;;;;8.27;1.67;;;15.30;55.50;;;;;;5051798;28;20021;-37
2021/09/30 15:05:39;;;;;;;6.03;2.10;;;15.30;55.70;;;;;;5051758;28;20421;-37
2021/09/30 15:08:05;;;;;;;5.18;1.55;;;15.40;55.80;;;;;;5051575;28;20025;-37
2021/09/30 15:10:30;;;;;;;5.28;1.50;;;15.50;55.20;;;;;;5051896;28;20479;-37
2021/09/30 15:12:57;;;;;;;6.45;1.50;;;15.50;55.40;;;;;;5051665;28;20048;-36
2021/09/30 15:15:24;;;;;;;5.65;1.30;;;15.30;56.30;;;;;;5051022;28;20074;-37
2021/09/30 15:17:54;;;;;;;5.75;1.50;;;15.00;57.70;;;;;;5051528;28;20412;-37
2021/09/30 15:23:03;;;;;;;4.95;1.40;;;15.20;57.20;;;;;;5055964;28;20036;-37
2021/09/30 15:25:29;;;;;;;7.63;1.85;;;15.20;57.60;;;;;;5055673;28;20512;-38
2021/09/30 15:27:57;;;;;;;6.07;1.60;;;14.90;58.20;;;;;;5055330;28;20047;-37
2021/09/30 15:30:23;;;;;;;6.47;1.95;;;14.80;58.50;;;;;;5055281;28;20381;-37
2021/09/30 15:32:50;;;;;;;7.65;2.90;;;14.90;58.80;;;;;;5054944;28;20016;-37
2021/09/30 15:35:15;;;;;;;6.25;1.45;;;14.80;59.60;;;;;;5055333;28;20017;-38
2021/09/30 15:37:41;;;;;;;5.10;2.67;;;14.80;59.60;;;;;;5054174;28;20038;-38
2021/09/30 15:40:07;;;;;;;8.82;1.83;;;14.80;60.10;;;;;;5055472;28;20029;-37
2021/09/30 15:42:33;;;;;;;3.50;1.50;;;14.90;59.70;;;;;;5055127;28;20315;-37
2021/09/30 15:44:59;;;;;;;6.13;2.55;;;14.80;60.20;;;;;;5053481;28;20021;-37
2021/09/30 15:47:26;;;;;;;6.57;1.30;;;14.80;60.40;;;;;;5055108;28;20508;-37
2021/09/30 15:49:52;;;;;;;3.75;1.45;;;14.70;59.80;;;;;;5053559;28;20028;-37
2021/09/30 15:52:18;;;;;;;5.60;1.48;;;14.60;59.40;;;;;;5055260;28;20127;-38